createdAt,value
2023-10-26T00:00:32.135Z,10.65
2023-10-26T00:02:59.166Z,10.60
2023-10-26T00:05:26.294Z,10.90
2023-10-26T00:07:53.197Z,11.68
2023-10-26T00:10:20.117Z,11.63
2023-10-26T00:12:46.929Z,11.82
2023-10-26T00:15:13.789Z,12.32
2023-10-26T00:17:41.928Z,10.57
2023-10-26T00:20:09.837Z,11.40
2023-10-26T00:22:36.433Z,11.50
2023-10-26T00:25:07.400Z,12.27
2023-10-26T00:27:34.014Z,11.55
2023-10-26T00:30:00.628Z,12.50
2023-10-26T00:32:27.351Z,11.75
2023-10-26T00:34:55.772Z,12.10
2023-10-26T00:37:22.366Z,12.93
2023-10-26T00:39:48.900Z,12.85
2023-10-26T00:42:15.525Z,12.77
2023-10-26T00:44:42.324Z,12.85
2023-10-26T00:47:09.454Z,13.23
2023-10-26T00:49:36.119Z,12.65
2023-10-26T00:52:05.276Z,12.32
2023-10-26T00:54:32.602Z,12.48
2023-10-26T00:57:00.012Z,13.82
2023-10-26T00:59:28.204Z,13.23
2023-10-26T01:01:56.490Z,13.73
2023-10-26T01:04:23.090Z,14.07
2023-10-26T01:06:49.716Z,13.57
2023-10-26T01:09:17.919Z,13.85
2023-10-26T01:11:45.079Z,14.30
2023-10-26T01:14:11.855Z,13.82
2023-10-26T01:16:38.832Z,13.88
2023-10-26T01:19:09.212Z,13.63
2023-10-26T01:21:49.461Z,14.52
2023-10-26T01:24:16.249Z,14.35
2023-10-26T01:26:42.949Z,14.65
2023-10-26T01:29:09.939Z,13.95
2023-10-26T01:31:36.957Z,13.70
2023-10-26T01:34:04.320Z,14.10
2023-10-26T01:36:31.335Z,13.95
2023-10-26T01:39:00.010Z,15.13
2023-10-26T01:41:26.753Z,15.50
2023-10-26T01:43:53.349Z,15.18
2023-10-26T01:46:19.956Z,14.20
2023-10-26T01:48:46.716Z,15.38
2023-10-26T01:51:13.470Z,15.07
2023-10-26T01:53:40.222Z,15.07
2023-10-26T01:56:08.259Z,14.45
2023-10-26T01:58:34.893Z,14.77
2023-10-26T02:01:01.555Z,15.13
2023-10-26T02:03:28.267Z,14.20
2023-10-26T02:05:55.177Z,14.50
2023-10-26T02:08:21.880Z,13.93
2023-10-26T02:10:48.452Z,15.95
2023-10-26T02:13:16.316Z,15.38
2023-10-26T02:15:42.896Z,14.70
2023-10-26T02:18:09.613Z,14.82
2023-10-26T02:20:36.367Z,14.70
2023-10-26T02:23:03.013Z,15.35
2023-10-26T02:25:29.679Z,15.82
2023-10-26T02:27:56.276Z,15.10
2023-10-26T02:30:24.493Z,15.07
2023-10-26T02:32:51.194Z,15.23
2023-10-26T02:35:17.779Z,15.18
2023-10-26T02:37:44.508Z,14.73
2023-10-26T02:40:11.893Z,15.43
2023-10-26T02:42:38.579Z,15.00
2023-10-26T02:45:06.271Z,15.45
2023-10-26T02:47:34.363Z,14.77
2023-10-26T02:50:01.121Z,15.07
2023-10-26T02:52:27.766Z,15.77
2023-10-26T02:54:54.386Z,15.70
2023-10-26T02:57:21.033Z,16.15
2023-10-26T02:59:47.656Z,14.30
2023-10-26T03:02:14.253Z,16.15
2023-10-26T03:04:42.444Z,15.38
2023-10-26T03:07:11.036Z,16.58
2023-10-26T03:09:37.775Z,14.85
2023-10-26T03:12:05.274Z,15.02
2023-10-26T03:14:31.922Z,15.35
2023-10-26T03:16:58.519Z,15.55
2023-10-26T03:19:25.120Z,15.70
2023-10-26T03:21:53.040Z,14.93
2023-10-26T03:24:19.739Z,15.40
2023-10-26T03:26:46.458Z,15.68
2023-10-26T03:29:13.141Z,15.27
2023-10-26T03:31:39.774Z,16.33
2023-10-26T03:34:06.461Z,16.13
2023-10-26T03:36:33.152Z,15.25
2023-10-26T03:39:01.407Z,16.30
2023-10-26T03:41:28.091Z,16.42
2023-10-26T03:43:54.800Z,18.02
2023-10-26T03:46:21.425Z,16.80
2023-10-26T03:48:48.119Z,16.42
2023-10-26T03:51:14.718Z,17.80
2023-10-26T03:53:41.580Z,15.88
2023-10-26T03:56:09.621Z,16.63
2023-10-26T03:58:36.133Z,16.13
2023-10-26T04:01:03.501Z,16.38
2023-10-26T04:03:30.160Z,16.80
2023-10-26T04:05:56.746Z,16.02
2023-10-26T04:08:23.278Z,16.20
2023-10-26T04:10:49.944Z,16.27
2023-10-26T04:13:17.972Z,16.58
2023-10-26T04:15:44.581Z,15.80
2023-10-26T04:18:11.332Z,17.13
2023-10-26T04:20:37.948Z,16.48
2023-10-26T04:23:04.586Z,14.98
2023-10-26T04:25:50.111Z,15.27
2023-10-26T04:28:19.226Z,15.25
2023-10-26T04:30:46.668Z,16.67
2023-10-26T04:33:13.492Z,16.02
2023-10-26T04:35:41.795Z,17.05
2023-10-26T04:38:08.523Z,16.58
2023-10-26T04:40:35.385Z,16.48
2023-10-26T04:43:02.041Z,17.08
2023-10-26T04:45:30.286Z,15.85
2023-10-26T04:47:57.147Z,16.42
2023-10-26T04:50:23.885Z,15.85
2023-10-26T04:52:52.190Z,15.70
2023-10-26T04:55:19.042Z,15.07
2023-10-26T04:57:46.340Z,15.73
2023-10-26T05:00:13.829Z,16.05
2023-10-26T05:02:42.288Z,14.02
2023-10-26T05:05:09.381Z,14.43
2023-10-26T05:07:35.968Z,14.15
2023-10-26T05:10:02.727Z,14.32
2023-10-26T05:12:29.758Z,13.65
2023-10-26T05:14:56.457Z,13.73
2023-10-26T05:17:23.203Z,13.82
2023-10-26T05:19:51.138Z,13.73
2023-10-26T05:22:17.779Z,14.38
2023-10-26T05:24:44.776Z,12.90
2023-10-26T05:27:11.886Z,13.90
2023-10-26T05:29:38.545Z,12.90
2023-10-26T05:32:05.767Z,12.88
2023-10-26T05:34:32.349Z,13.00
2023-10-26T05:37:00.356Z,12.18
2023-10-26T05:39:26.983Z,13.10
2023-10-26T05:41:53.567Z,12.65
2023-10-26T05:44:20.372Z,13.00
2023-10-26T05:46:47.040Z,13.23
2023-10-26T05:49:13.889Z,12.55
2023-10-26T05:51:40.527Z,12.70
2023-10-26T05:54:08.664Z,12.98
2023-10-26T05:56:35.575Z,13.18
2023-10-26T05:59:05.471Z,13.48
2023-10-26T06:01:32.240Z,12.63
2023-10-26T06:03:59.036Z,12.75
2023-10-26T06:06:25.745Z,12.77
2023-10-26T06:08:53.525Z,13.23
2023-10-26T06:11:21.581Z,12.68
2023-10-26T06:13:49.509Z,12.73
2023-10-26T06:16:16.286Z,12.20
2023-10-26T06:18:43.173Z,11.93
2023-10-26T06:21:10.163Z,12.20
2023-10-26T06:23:36.849Z,12.15
2023-10-26T06:26:05.456Z,12.13
2023-10-26T06:28:33.511Z,12.93
2023-10-26T06:31:09.305Z,11.73
2023-10-26T06:33:36.135Z,11.68
2023-10-26T06:36:02.963Z,11.85
2023-10-26T06:38:29.868Z,12.60
2023-10-26T06:40:56.475Z,12.23
2023-10-26T06:43:24.660Z,12.18
2023-10-26T06:45:52.714Z,12.15
2023-10-26T06:48:20.413Z,12.02
2023-10-26T06:50:47.214Z,13.25
2023-10-26T06:53:17.599Z,12.20
2023-10-26T06:55:44.252Z,12.23
2023-10-26T06:58:10.873Z,12.20
2023-10-26T07:00:37.608Z,11.07
2023-10-26T07:03:05.860Z,11.73
2023-10-26T07:05:34.258Z,10.98
2023-10-26T07:08:00.895Z,10.57
2023-10-26T07:10:27.595Z,10.35
2023-10-26T07:12:54.211Z,10.23
2023-10-26T07:15:21.187Z,10.23
2023-10-26T07:17:47.948Z,9.98
2023-10-26T07:20:16.012Z,10.82
2023-10-26T07:22:42.600Z,10.75
2023-10-26T07:25:09.952Z,10.80
2023-10-26T07:27:36.822Z,10.55
2023-10-26T07:30:03.742Z,11.27
2023-10-26T07:32:30.386Z,10.60
2023-10-26T07:34:57.020Z,10.77
2023-10-26T07:37:25.156Z,10.10
2023-10-26T07:39:51.874Z,11.90
2023-10-26T07:42:38.545Z,11.07
2023-10-26T07:45:06.130Z,12.38
2023-10-26T07:47:33.324Z,11.75
2023-10-26T07:50:00.138Z,11.57
2023-10-26T07:52:28.206Z,12.57
2023-10-26T07:54:55.109Z,11.52
2023-10-26T07:57:21.742Z,12.65
2023-10-26T07:59:48.419Z,12.32
2023-10-26T08:02:15.289Z,13.00
2023-10-26T08:04:42.293Z,14.00
2023-10-26T08:07:09.267Z,12.88
2023-10-26T08:09:37.246Z,13.35
2023-10-26T08:12:04.376Z,13.93
2023-10-26T08:16:04.863Z,14.85
2023-10-26T08:17:17.889Z,13.80
2023-10-26T08:19:45.111Z,14.90
2023-10-26T08:22:12.660Z,15.65
2023-10-26T08:24:40.820Z,14.57
2023-10-26T08:27:07.820Z,14.98
2023-10-26T08:29:35.084Z,14.27
2023-10-26T08:32:01.919Z,15.68
2023-10-26T08:34:28.727Z,15.18
2023-10-26T08:37:12.505Z,13.95
2023-10-26T08:39:41.702Z,15.95
2023-10-26T08:42:08.434Z,15.18
2023-10-26T08:44:35.317Z,15.07
2023-10-26T08:47:05.008Z,14.48
2023-10-26T08:49:32.545Z,14.38
2023-10-26T08:51:59.676Z,14.82
2023-10-26T08:54:27.361Z,13.77
2023-10-26T08:56:55.506Z,15.32
2023-10-26T08:59:22.627Z,14.02
2023-10-26T09:01:49.736Z,13.43
2023-10-26T09:04:17.102Z,14.00
2023-10-26T09:06:44.300Z,14.02
2023-10-26T09:09:13.037Z,15.20
2023-10-26T09:11:39.872Z,13.18
2023-10-26T09:14:15.233Z,14.10
2023-10-26T09:16:42.541Z,13.25
2023-10-26T09:19:09.701Z,12.90
2023-10-26T09:21:53.901Z,12.48
2023-10-26T09:24:22.166Z,13.50
2023-10-26T09:26:48.793Z,13.15
2023-10-26T09:29:18.667Z,12.30
2023-10-26T09:31:53.273Z,12.15
2023-10-26T09:34:23.641Z,12.80
2023-10-26T09:37:00.828Z,12.95
2023-10-26T09:39:29.984Z,13.95
2023-10-26T09:41:56.961Z,13.23
2023-10-26T09:44:25.124Z,13.55
2023-10-26T09:46:52.149Z,17.67
2023-10-26T09:49:19.088Z,13.23
2023-10-26T09:51:46.597Z,12.63
2023-10-26T09:54:14.323Z,12.25
2023-10-26T09:56:46.199Z,12.88
2023-10-26T09:59:14.338Z,13.57
2023-10-26T10:01:42.545Z,13.45
2023-10-26T10:04:10.476Z,12.63
2023-10-26T10:06:54.607Z,12.85
2023-10-26T10:09:23.251Z,13.50
2023-10-26T10:12:26.122Z,12.75
2023-10-26T10:15:15.749Z,11.82
2023-10-26T10:18:11.695Z,12.13
2023-10-26T10:20:39.744Z,12.02
2023-10-26T10:23:06.500Z,11.35
2023-10-26T10:25:55.682Z,11.15
2023-10-26T10:28:22.503Z,11.93
2023-10-26T10:30:51.016Z,10.07
2023-10-26T10:33:24.564Z,11.00
2023-10-26T10:36:01.936Z,10.85
2023-10-26T10:38:29.320Z,12.07
2023-10-26T10:41:09.885Z,10.88
2023-10-26T10:43:37.848Z,10.82
2023-10-26T10:46:14.392Z,9.80
2023-10-26T10:49:02.879Z,11.27
2023-10-26T10:51:33.767Z,10.55
2023-10-26T10:54:06.051Z,11.75
2023-10-26T10:56:43.478Z,11.35
2023-10-26T10:59:20.747Z,11.32
2023-10-26T11:01:48.046Z,12.20
2023-10-26T11:04:16.484Z,12.38
2023-10-26T11:06:48.114Z,11.88
2023-10-26T11:09:23.101Z,12.45
2023-10-26T11:11:49.938Z,11.93
2023-10-26T11:14:17.129Z,12.32
2023-10-26T11:16:44.198Z,12.18
2023-10-26T11:19:11.135Z,13.18
2023-10-26T11:21:40.378Z,13.05
2023-10-26T11:24:08.133Z,12.90
2023-10-26T11:26:34.955Z,12.40
2023-10-26T11:29:01.681Z,13.93
2023-10-26T11:31:38.912Z,12.63
2023-10-26T11:34:06.893Z,13.88
2023-10-26T11:36:35.394Z,15.75
2023-10-26T11:39:04.201Z,16.00
2023-10-26T11:41:35.746Z,14.10
2023-10-26T11:44:04.513Z,13.88
2023-10-26T11:46:34.944Z,14.77
2023-10-26T11:49:03.123Z,14.60
2023-10-26T11:51:30.079Z,14.80
2023-10-26T11:54:09.533Z,14.23
2023-10-26T11:56:40.412Z,13.90
2023-10-26T11:59:11.793Z,12.98
2023-10-26T12:01:38.872Z,13.20
2023-10-26T12:04:11.940Z,12.32
2023-10-26T12:06:38.644Z,11.63
2023-10-26T12:09:05.625Z,11.57
2023-10-26T12:11:33.015Z,11.30
2023-10-26T12:14:06.099Z,11.30
2023-10-26T12:16:34.389Z,11.77
2023-10-26T12:19:02.143Z,12.18
2023-10-26T12:21:29.708Z,11.90
2023-10-26T12:23:59.347Z,11.88
2023-10-26T12:26:29.320Z,12.15
2023-10-26T12:28:59.751Z,12.77
2023-10-26T12:31:29.474Z,12.05
2023-10-26T12:33:56.720Z,10.32
2023-10-26T12:36:23.564Z,10.40
2023-10-26T12:38:50.311Z,10.63
2023-10-26T12:41:17.398Z,9.20
2023-10-26T12:43:44.728Z,9.93
2023-10-26T12:46:19.053Z,10.35
2023-10-26T12:48:47.339Z,10.27
2023-10-26T12:51:17.188Z,9.82
2023-10-26T12:53:44.167Z,10.55
2023-10-26T12:56:10.982Z,10.60
2023-10-26T12:58:38.014Z,10.10
2023-10-26T13:01:05.974Z,9.80
2023-10-26T13:03:32.681Z,8.50
2023-10-26T13:06:00.823Z,9.43
2023-10-26T13:08:27.658Z,9.18
2023-10-26T13:10:54.545Z,7.78
2023-10-26T13:13:21.291Z,8.60
2023-10-26T13:15:48.305Z,8.73
2023-10-26T13:18:14.988Z,8.95
2023-10-26T13:20:44.779Z,7.97
2023-10-26T13:23:13.167Z,8.55
2023-10-26T13:25:39.967Z,8.23
2023-10-26T13:28:06.966Z,9.00
2023-10-26T13:30:33.773Z,8.27
2023-10-26T13:33:01.014Z,8.27
2023-10-26T13:35:27.838Z,8.98
2023-10-26T13:37:54.758Z,7.90
2023-10-26T13:40:23.018Z,7.38
2023-10-26T13:42:49.676Z,9.25
2023-10-26T13:45:16.410Z,9.43
2023-10-26T13:47:43.366Z,8.57
2023-10-26T13:50:10.265Z,8.60
2023-10-26T13:52:37.031Z,9.30
2023-10-26T13:55:04.481Z,8.88
2023-10-26T13:57:32.556Z,9.82
2023-10-26T13:59:59.379Z,10.23
2023-10-26T14:02:26.257Z,9.73
2023-10-26T14:05:07.115Z,10.07
2023-10-26T14:07:36.535Z,9.25
2023-10-26T14:10:03.569Z,9.88
2023-10-26T14:12:31.974Z,8.52
2023-10-26T14:14:58.990Z,8.45
2023-10-26T14:17:25.965Z,8.75
2023-10-26T14:19:52.911Z,9.23
2023-10-26T14:22:19.613Z,8.90
2023-10-26T14:24:46.943Z,8.60
2023-10-26T14:27:13.817Z,8.63
2023-10-26T14:29:42.190Z,10.55
2023-10-26T14:32:08.991Z,10.45
2023-10-26T14:34:35.812Z,10.43
2023-10-26T14:37:02.589Z,10.45
2023-10-26T14:39:29.412Z,11.88
2023-10-26T14:41:56.156Z,10.93
2023-10-26T14:44:22.810Z,10.38
2023-10-26T14:46:50.866Z,9.63
2023-10-26T14:49:17.451Z,9.40
2023-10-26T14:51:44.108Z,8.80
2023-10-26T14:54:10.766Z,9.90
2023-10-26T14:56:37.456Z,10.73
2023-10-26T14:59:04.301Z,9.90
2023-10-26T15:01:31.061Z,9.30
2023-10-26T15:04:00.003Z,10.40
2023-10-26T15:06:26.862Z,10.23
2023-10-26T15:08:53.502Z,9.30
2023-10-26T15:11:23.809Z,9.18
2023-10-26T15:13:51.748Z,9.30
2023-10-26T15:16:18.670Z,11.05
2023-10-26T15:18:45.450Z,37.45
2023-10-26T15:21:13.606Z,11.18
2023-10-26T15:23:40.281Z,40.80
2023-10-26T15:26:07.404Z,17.45
2023-10-26T15:28:34.495Z,11.68
2023-10-26T15:31:01.425Z,10.80
2023-10-26T15:33:28.856Z,11.63
2023-10-26T15:35:55.567Z,10.90
2023-10-26T15:38:27.613Z,10.68
2023-10-26T15:41:02.405Z,11.25
2023-10-26T15:43:29.036Z,10.35
2023-10-26T15:45:55.909Z,14.77
2023-10-26T15:49:30.700Z,18.75
2023-10-26T15:51:09.712Z,48.53
2023-10-26T15:53:37.910Z,74.90
2023-10-26T15:56:05.544Z,51.72
2023-10-26T15:58:32.885Z,29.40
2023-10-26T16:01:01.052Z,23.00
2023-10-26T16:03:28.194Z,32.15
2023-10-26T16:05:55.001Z,15.93
2023-10-26T16:08:21.657Z,21.20
2023-10-26T16:10:49.813Z,25.52
2023-10-26T16:13:16.655Z,20.88
2023-10-26T16:15:43.305Z,18.25
2023-10-26T16:18:10.020Z,17.77
2023-10-26T16:20:36.745Z,15.60
2023-10-26T16:23:03.409Z,32.53
2023-10-26T16:25:30.220Z,44.05
2023-10-26T16:27:58.358Z,21.10
2023-10-26T16:30:25.254Z,14.38
2023-10-26T16:32:52.002Z,11.57
2023-10-26T16:35:18.841Z,11.13
2023-10-26T16:37:45.529Z,11.27
2023-10-26T16:40:12.545Z,11.52
2023-10-26T16:42:39.227Z,10.75
2023-10-26T16:45:07.636Z,10.90
2023-10-26T16:47:44.500Z,9.85
2023-10-26T16:50:15.619Z,10.35
2023-10-26T16:52:42.364Z,11.68
2023-10-26T16:55:09.576Z,11.98
2023-10-26T16:57:36.410Z,10.98
2023-10-26T17:00:03.961Z,11.35
2023-10-26T17:02:34.611Z,10.82
2023-10-26T17:05:01.409Z,11.73
2023-10-26T17:07:28.193Z,11.52
2023-10-26T17:09:55.560Z,12.05
2023-10-26T17:12:22.388Z,11.77
2023-10-26T17:14:49.072Z,12.95
2023-10-26T17:17:15.737Z,12.60
2023-10-26T17:19:45.511Z,11.73
2023-10-26T17:22:12.801Z,12.85
2023-10-26T17:24:39.566Z,11.68
2023-10-26T17:27:06.382Z,12.38
2023-10-26T17:29:33.182Z,12.48
2023-10-26T17:31:59.945Z,12.60
2023-10-26T17:34:26.805Z,12.57
2023-10-26T17:36:55.156Z,13.15
2023-10-26T17:39:22.221Z,13.10
2023-10-26T17:41:49.007Z,11.77
2023-10-26T17:44:15.759Z,12.68
2023-10-26T17:46:42.571Z,13.38
2023-10-26T17:49:09.474Z,12.73
2023-10-26T17:51:36.277Z,12.70
2023-10-26T17:54:04.769Z,11.98
2023-10-26T17:56:32.173Z,13.52
2023-10-26T17:58:59.228Z,13.25
2023-10-26T18:01:26.050Z,12.80
2023-10-26T18:03:52.828Z,12.68
2023-10-26T18:06:19.667Z,13.88
2023-10-26T18:08:46.404Z,13.00
2023-10-26T18:11:14.607Z,12.43
2023-10-26T18:13:41.364Z,12.05
2023-10-26T18:16:08.242Z,12.90
2023-10-26T18:18:35.362Z,12.90
2023-10-26T18:21:03.061Z,13.02
2023-10-26T18:23:31.291Z,12.98
2023-10-26T18:25:58.121Z,13.48
2023-10-26T18:28:26.496Z,13.57
2023-10-26T18:31:03.919Z,13.43
2023-10-26T18:33:32.505Z,13.68
2023-10-26T18:36:00.511Z,13.73
2023-10-26T18:38:27.519Z,11.70
2023-10-26T18:40:54.378Z,12.43
2023-10-26T18:43:21.074Z,14.38
2023-10-26T18:45:56.180Z,13.38
2023-10-26T18:48:23.081Z,12.98
2023-10-26T18:50:50.161Z,13.15
2023-10-26T18:53:18.111Z,13.60
2023-10-26T18:55:44.923Z,12.30
2023-10-26T18:58:11.781Z,12.32
2023-10-26T19:00:39.509Z,12.43
2023-10-26T19:03:09.052Z,12.38
2023-10-26T19:05:36.296Z,13.23
2023-10-26T19:08:05.202Z,13.52
2023-10-26T19:10:32.274Z,13.38
2023-10-26T19:12:59.163Z,13.20
2023-10-26T19:15:26.110Z,13.15
2023-10-26T19:17:52.946Z,13.27
2023-10-26T19:20:21.115Z,13.13
2023-10-26T19:22:48.072Z,13.02
2023-10-26T19:25:15.846Z,14.48
2023-10-26T19:27:42.555Z,14.55
2023-10-26T19:30:09.824Z,13.73
2023-10-26T19:32:36.516Z,14.13
2023-10-26T19:35:03.392Z,13.30
2023-10-26T19:37:31.618Z,14.07
2023-10-26T19:39:58.565Z,14.02
2023-10-26T19:42:25.276Z,13.43
2023-10-26T19:44:52.425Z,12.20
2023-10-26T19:47:19.117Z,14.20
2023-10-26T19:49:46.259Z,14.13
2023-10-26T19:52:12.913Z,14.55
2023-10-26T19:54:41.005Z,13.95
2023-10-26T19:57:07.826Z,13.75
2023-10-26T19:59:34.723Z,15.32
2023-10-26T20:02:01.485Z,14.07
2023-10-26T20:04:28.173Z,14.15
2023-10-26T20:06:54.839Z,14.52
2023-10-26T20:09:21.570Z,15.02
2023-10-26T20:11:49.602Z,14.70
2023-10-26T20:14:16.375Z,14.23
2023-10-26T20:16:43.062Z,13.63
2023-10-26T20:19:10.016Z,14.00
2023-10-26T20:21:36.967Z,13.27
2023-10-26T20:24:04.404Z,13.52
2023-10-26T20:26:31.150Z,14.05
2023-10-26T20:28:59.714Z,13.90
2023-10-26T20:31:26.573Z,13.63
2023-10-26T20:33:53.330Z,14.00
2023-10-26T20:36:20.754Z,14.25
2023-10-26T20:38:47.374Z,12.95
2023-10-26T20:41:14.237Z,13.77
2023-10-26T20:43:40.920Z,13.38
2023-10-26T20:46:09.126Z,13.65
2023-10-26T20:48:35.818Z,14.32
2023-10-26T20:51:06.661Z,12.85
2023-10-26T20:53:33.329Z,12.73
2023-10-26T20:56:00.919Z,12.95
2023-10-26T20:58:28.471Z,13.23
2023-10-26T21:00:55.319Z,12.07
2023-10-26T21:03:23.419Z,14.68
2023-10-26T21:05:50.194Z,13.43
2023-10-26T21:08:16.887Z,13.55
2023-10-26T21:10:43.775Z,13.50
2023-10-26T21:13:10.571Z,13.52
2023-10-26T21:15:37.326Z,13.25
2023-10-26T21:18:04.229Z,13.73
2023-10-26T21:20:32.780Z,12.85
2023-10-26T21:22:59.800Z,13.68
2023-10-26T21:25:26.401Z,13.88
2023-10-26T21:27:53.026Z,13.60
2023-10-26T21:30:19.758Z,13.70
2023-10-26T21:32:46.425Z,12.80
2023-10-26T21:35:13.301Z,12.90
2023-10-26T21:37:41.411Z,12.40
2023-10-26T21:40:09.386Z,11.50
2023-10-26T21:42:36.167Z,12.93
2023-10-26T21:45:02.958Z,12.73
2023-10-26T21:47:29.646Z,13.48
2023-10-26T21:49:56.269Z,14.25
2023-10-26T21:52:22.941Z,14.65
2023-10-26T21:54:51.023Z,14.55
2023-10-26T21:57:17.668Z,15.10
2023-10-26T21:59:44.476Z,13.82
2023-10-26T22:02:11.264Z,13.50
2023-10-26T22:04:38.010Z,11.88
2023-10-26T22:07:04.732Z,12.65
2023-10-26T22:09:33.638Z,12.88
2023-10-26T22:12:04.854Z,14.23
2023-10-26T22:14:32.614Z,12.63
2023-10-26T22:16:59.351Z,13.48
2023-10-26T22:19:25.987Z,13.32
2023-10-26T22:21:52.616Z,13.63
2023-10-26T22:24:19.309Z,13.50
2023-10-26T22:26:45.924Z,14.80
2023-10-26T22:29:27.310Z,14.70
2023-10-26T22:31:56.404Z,15.30
2023-10-26T22:34:23.145Z,14.95
2023-10-26T22:36:49.918Z,15.73
2023-10-26T22:39:16.575Z,14.18
2023-10-26T22:41:43.155Z,16.33
2023-10-26T22:44:09.753Z,16.58
2023-10-26T22:46:37.874Z,16.48
2023-10-26T22:49:04.576Z,16.23
2023-10-26T22:51:31.311Z,16.33
2023-10-26T22:53:57.952Z,17.35
2023-10-26T22:56:24.568Z,15.70
2023-10-26T22:58:51.174Z,17.58
2023-10-26T23:01:17.820Z,15.48
2023-10-26T23:03:46.008Z,16.70
2023-10-26T23:06:12.767Z,17.60
2023-10-26T23:08:39.531Z,16.55
2023-10-26T23:11:06.217Z,16.05
2023-10-26T23:13:32.859Z,16.15
2023-10-26T23:15:59.539Z,17.13
2023-10-26T23:18:26.296Z,17.92
2023-10-26T23:20:54.369Z,17.67
2023-10-26T23:23:21.045Z,16.50
2023-10-26T23:25:47.753Z,18.40
2023-10-26T23:28:14.572Z,19.15
2023-10-26T23:30:41.227Z,17.92
2023-10-26T23:33:08.306Z,18.17
2023-10-26T23:35:37.807Z,17.80
2023-10-26T23:38:06.321Z,17.98
2023-10-26T23:40:32.922Z,20.30
2023-10-26T23:42:59.867Z,18.42
2023-10-26T23:45:26.763Z,18.77
2023-10-26T23:47:53.366Z,18.55
2023-10-26T23:50:20.048Z,18.65
2023-10-26T23:52:46.653Z,18.75
2023-10-26T23:55:14.960Z,18.95
2023-10-26T23:57:41.864Z,19.35
